This is the latest recevied weather packets stored in our database for station/object OH2TI. If no packets are shown the sender has not sent any weather packets the latest 10 day(s).
| Time | Temp. | Humidity | Pressure | Rain* | Wind** | Luminosity | Snow |
|---|---|---|---|---|---|---|---|
| 1777713772 | 13.33° C | 58% | 1007.2 hPa | - | - | - | - |
| 1777713125 | 12.78° C | 59% | 1007.3 hPa | - | - | - | - |
| 1777712300 | 13.33° C | 58% | 1007.4 hPa | - | - | - | - |
| 1777711500 | 13.89° C | 58% | 1007.5 hPa | - | - | - | - |
| 1777710765 | 13.89° C | 58% | 1007.6 hPa | - | - | - | - |
| 1777709910 | 13.33° C | 60% | 1007.7 hPa | - | - | - | - |
| 1777709355 | 12.78° C | 61% | 1007.7 hPa | - | - | - | - |
| 1777708963 | 12.22° C | 63% | 1007.7 hPa | - | - | - | - |
| 1777708210 | 10.56° C | 70% | 1007.7 hPa | - | - | - | - |
| 1777707655 | 11.11° C | 67% | 1007.8 hPa | - | - | - | - |
| 1777707285 | 11.11° C | 68% | 1007.8 hPa | - | - | - | - |
| 1777706600 | 10.56° C | 70% | 1007.8 hPa | - | - | - | - |
| 1777705920 | 11.11° C | 68% | 1007.7 hPa | - | - | - | - |
| 1777705315 | 10.56° C | 70% | 1007.7 hPa | - | - | - | - |
| 1777704420 | 10.56° C | 69% | 1007.9 hPa | - | - | - | - |
| 1777703700 | 10.56° C | 68% | 1007.9 hPa | - | - | - | - |
| 1777702833 | 11.67° C | 64% | 1008 hPa | - | - | - | - |
| 1777702145 | 10.56° C | 68% | 1008 hPa | - | - | - | - |
| 1777701350 | 10° C | 70% | 1008.1 hPa | - | - | - | - |
| 1777700670 | 9.44° C | 71% | 1008 hPa | - | - | - | - |
| 1777700303 | 10° C | 69% | 1008 hPa | - | - | - | - |
| 1777699950 | 10.56° C | 68% | 1008.1 hPa | - | - | - | - |
| 1777699200 | 10° C | 71% | 1008.2 hPa | - | - | - | - |
| 1777698445 | 8.89° C | 73% | 1008.2 hPa | - | - | - | - |
| 1777697955 | 8.89° C | 73% | 1008.2 hPa | - | - | - | - |
* Rain since midnight (hover to see other rain measurements)
** Current wind speed in m/s (hover to see current wind gust speed)